Time;durP1;ratioP1;P1;durP2;ratioP2;P2;SDS_P1;SDS_P2;PMS_P1;PMS_P2;Temp;Humidity;BMP_temperature;BMP_pressure;BME280_temperature;BME280_humidity;BME280_pressure;Samples;Min_cycle;Max_cycle;Signal;HPM_P1;HPM_P2
2022/06/20 00:00:34;;;;;;;4.40;2.22;;;13.60;99.90;;;;;;5076564;28;20404;-66
2022/06/20 00:03:00;;;;;;;6.63;1.98;;;13.40;99.90;;;;;;5075225;28;20036;-66
2022/06/20 00:05:30;;;;;;;4.32;1.83;;;13.50;99.90;;;;;;5075283;28;20139;-66
2022/06/20 00:07:55;;;;;;;5.32;2.00;;;13.50;99.90;;;;;;5074818;28;20036;-66
2022/06/20 00:10:24;;;;;;;5.03;2.50;;;13.60;99.90;;;;;;5059116;28;20093;-67
2022/06/20 00:12:50;;;;;;;5.68;1.58;;;13.50;99.90;;;;;;5092774;28;20067;-66
2022/06/20 00:15:23;;;;;;;6.90;1.60;;;13.50;99.90;;;;;;5076881;28;20062;-66
2022/06/20 00:17:49;;;;;;;5.03;1.75;;;13.30;99.90;;;;;;5076346;28;20047;-66
2022/06/20 00:20:15;;;;;;;6.25;2.47;;;13.50;99.90;;;;;;5074686;28;20037;-66
2022/06/20 00:22:41;;;;;;;5.28;2.10;;;13.50;99.90;;;;;;5075678;28;20394;-66
2022/06/20 00:25:07;;;;;;;6.30;2.38;;;13.40;99.90;;;;;;5057076;28;20033;-66
2022/06/20 00:27:33;;;;;;;6.25;2.60;;;;;;;;;;5074231;28;20033;-66
2022/06/20 00:29:59;;;;;;;7.85;2.17;;;;;;;;;;5075621;28;20047;-67
2022/06/20 00:32:24;;;;;;;7.25;2.22;;;13.40;99.90;;;;;;5074929;28;20486;-66
2022/06/20 00:34:50;;;;;;;7.53;2.28;;;13.40;99.90;;;;;;5074534;28;20086;-66
2022/06/20 00:37:19;;;;;;;4.60;1.83;;;13.30;99.90;;;;;;5075825;28;20032;-66
2022/06/20 00:39:49;;;;;;;5.00;2.00;;;13.10;99.90;;;;;;5075038;28;20037;-66
2022/06/20 00:42:15;;;;;;;6.25;1.98;;;13.20;99.90;;;;;;5057657;28;20059;-66
2022/06/20 00:44:48;;;;;;;4.38;1.80;;;13.30;99.90;;;;;;5057450;28;20040;-66
2022/06/20 00:47:20;;;;;;;4.45;2.17;;;13.30;99.90;;;;;;5090949;28;20044;-66
2022/06/20 00:50:14;;;;;;;9.25;2.75;;;13.20;99.90;;;;;;5074085;28;20494;-66
2022/06/20 00:52:56;;;;;;;6.30;2.30;;;13.30;99.90;;;;;;5075193;28;20186;-68
2022/06/20 00:55:28;;;;;;;6.43;2.10;;;13.20;99.90;;;;;;5087769;28;20039;-68
2022/06/20 00:58:01;;;;;;;7.60;2.40;;;13.20;99.90;;;;;;5075833;28;20048;-68
2022/06/20 01:00:31;;;;;;;5.20;2.40;;;13.20;99.90;;;;;;5058679;28;20409;-68
2022/06/20 01:03:19;;;;;;;9.10;2.47;;;13.20;99.90;;;;;;5075907;28;20035;-69
2022/06/20 01:05:51;;;;;;;4.95;2.28;;;13.30;99.90;;;;;;5074942;28;20090;-68
2022/06/20 01:08:30;;;;;;;6.15;2.58;;;13.30;99.90;;;;;;5060805;28;20101;-68
2022/06/20 01:11:02;;;;;;;9.68;3.42;;;13.20;99.90;;;;;;5076417;28;20119;-67
2022/06/20 01:13:28;;;;;;;8.85;2.50;;;13.20;99.90;;;;;;5074063;28;20045;-68
2022/06/20 01:16:12;;;;;;;6.78;2.40;;;13.20;99.90;;;;;;5058872;28;20436;-68
2022/06/20 01:18:40;;;;;;;5.25;2.50;;;13.10;99.90;;;;;;5061235;28;20072;-68
2022/06/20 01:21:12;;;;;;;7.40;3.10;;;13.00;99.90;;;;;;5057720;28;20437;-69
2022/06/20 01:24:00;;;;;;;5.65;2.47;;;13.20;99.90;;;;;;5044078;28;20068;-68
2022/06/20 01:26:49;;;;;;;7.15;2.33;;;13.00;99.90;;;;;;5074190;28;20059;-68
2022/06/20 01:29:16;;;;;;;7.45;2.55;;;13.10;99.90;;;;;;5076135;28;20035;-68
2022/06/20 01:32:00;;;;;;;9.57;3.40;;;13.00;99.90;;;;;;5067569;28;20037;-68
2022/06/20 01:34:26;;;;;;;9.35;2.90;;;;;;;;;;5061202;28;20090;-67
2022/06/20 01:39:44;;;;;;;8.30;2.60;;;12.90;99.90;;;;;;5073698;28;20048;-69
2022/06/20 01:42:18;;;;;;;8.70;2.55;;;12.70;99.90;;;;;;5074832;28;20036;-68
2022/06/20 01:44:48;;;;;;;9.57;2.72;;;12.80;99.90;;;;;;5088889;28;20409;-68
2022/06/20 01:47:14;;;;;;;6.85;2.35;;;12.70;99.90;;;;;;5063364;28;20043;-68
2022/06/20 01:49:43;;;;;;;5.65;2.45;;;12.80;99.90;;;;;;5066305;28;20100;-69
2022/06/20 01:52:20;;;;;;;7.32;3.03;;;12.80;99.90;;;;;;5074204;28;20032;-68
2022/06/20 01:54:54;;;;;;;7.20;2.97;;;12.70;99.90;;;;;;5075002;28;20041;-67
2022/06/20 01:57:21;;;;;;;6.43;2.67;;;12.90;99.90;;;;;;5059587;28;20060;-67
2022/06/20 02:00:01;;;;;;;6.70;2.38;;;12.80;99.90;;;;;;5074222;28;20079;-68
2022/06/20 02:02:30;;;;;;;6.82;2.33;;;12.80;99.90;;;;;;5060716;28;20040;-68
2022/06/20 02:04:57;;;;;;;9.50;2.40;;;12.70;99.90;;;;;;5073540;28;20040;-68
2022/06/20 02:07:23;;;;;;;5.50;2.50;;;12.70;99.90;;;;;;5075139;28;20476;-68
2022/06/20 02:09:49;;;;;;;10.80;2.38;;;;;;;;;;5074537;28;20036;-68
2022/06/20 02:12:16;;;;;;;6.15;2.30;;;12.50;99.90;;;;;;5075229;28;20131;-68
2022/06/20 02:14:54;;;;;;;6.50;2.17;;;12.50;99.90;;;;;;5073188;28;20502;-68
2022/06/20 02:17:29;;;;;;;4.78;2.60;;;12.40;99.90;;;;;;5074523;28;20044;-68
2022/06/20 02:19:56;;;;;;;7.60;2.08;;;12.40;99.90;;;;;;5075213;28;20044;-68
2022/06/20 02:22:24;;;;;;;9.10;2.55;;;12.40;99.90;;;;;;5057486;28;20371;-68
2022/06/20 02:24:54;;;;;;;5.22;2.22;;;12.30;99.90;;;;;;5075727;28;20049;-68
2022/06/20 02:27:31;;;;;;;8.80;2.50;;;12.10;99.90;;;;;;5073664;28;20037;-68
2022/06/20 02:29:58;;;;;;;6.65;2.00;;;12.20;99.90;;;;;;5073746;28;20478;-68
2022/06/20 02:32:26;;;;;;;8.40;2.38;;;12.20;99.90;;;;;;5076629;28;20040;-68
2022/06/20 02:34:52;;;;;;;6.45;2.35;;;12.10;99.90;;;;;;5072200;28;20111;-67
2022/06/20 02:37:23;;;;;;;7.90;2.10;;;12.10;99.90;;;;;;5070754;28;20133;-67
2022/06/20 02:40:00;;;;;;;5.85;2.03;;;12.10;99.90;;;;;;5078306;28;20043;-68
2022/06/20 02:42:44;;;;;;;6.07;1.90;;;12.10;99.90;;;;;;5077380;28;20092;-68
2022/06/20 02:45:11;;;;;;;3.35;2.05;;;12.10;99.90;;;;;;5048595;28;20124;-68
2022/06/20 02:47:47;;;;;;;4.65;2.03;;;12.00;99.90;;;;;;5094617;28;20036;-68
2022/06/20 02:50:16;;;;;;;7.07;2.33;;;12.10;99.90;;;;;;5063275;28;20040;-68
2022/06/20 02:52:50;;;;;;;6.43;1.70;;;12.00;99.90;;;;;;5076711;28;20123;-68
2022/06/20 02:55:17;;;;;;;6.70;2.65;;;12.10;99.90;;;;;;5078905;28;20036;-67
2022/06/20 02:57:48;;;;;;;6.20;2.38;;;11.90;99.90;;;;;;5078087;28;20127;-68
2022/06/20 03:00:19;;;;;;;5.15;2.30;;;12.00;99.90;;;;;;5078077;28;20044;-67
2022/06/20 03:02:54;;;;;;;10.85;2.83;;;11.80;99.90;;;;;;5078599;28;20122;-68
2022/06/20 03:05:21;;;;;;;8.10;3.13;;;11.70;99.90;;;;;;5076691;28;20044;-67
2022/06/20 03:07:49;;;;;;;4.55;2.10;;;11.90;99.90;;;;;;5078175;28;20029;-67
2022/06/20 03:10:26;;;;;;;9.57;3.00;;;12.00;99.90;;;;;;5059851;28;20040;-68
2022/06/20 03:12:53;;;;;;;6.65;2.40;;;11.70;99.90;;;;;;5077639;28;20127;-67
2022/06/20 03:15:19;;;;;;;6.82;2.22;;;11.80;99.90;;;;;;5076962;28;20041;-67
2022/06/20 03:17:47;;;;;;;8.98;3.38;;;11.70;99.90;;;;;;5060318;28;20082;-68
2022/06/20 03:20:14;;;;;;;11.68;3.47;;;11.60;99.90;;;;;;5077324;28;20044;-68
2022/06/20 03:22:57;;;;;;;5.32;2.17;;;11.60;99.90;;;;;;5078353;28;20506;-68
2022/06/20 03:25:22;;;;;;;5.03;1.88;;;11.50;99.90;;;;;;5078679;28;20044;-68
2022/06/20 03:27:52;;;;;;;5.28;2.40;;;11.70;99.90;;;;;;5077847;28;20043;-68
2022/06/20 03:30:29;;;;;;;7.15;2.90;;;11.60;99.90;;;;;;5076661;28;20127;-67
2022/06/20 03:32:55;;;;;;;4.70;2.13;;;;;;;;;;5077194;28;20086;-68
2022/06/20 03:35:21;;;;;;;5.22;2.33;;;;;;;;;;5076503;28;20139;-68
2022/06/20 03:37:47;;;;;;;4.35;1.80;;;11.50;99.90;;;;;;5078547;28;20151;-68
2022/06/20 03:40:14;;;;;;;5.30;2.20;;;11.40;99.90;;;;;;5077799;28;20078;-68
2022/06/20 03:42:40;;;;;;;4.30;2.40;;;11.40;99.90;;;;;;5076254;28;20044;-68
2022/06/20 03:45:08;;;;;;;3.35;1.80;;;11.50;99.90;;;;;;5077351;28;20032;-67
2022/06/20 03:47:45;;;;;;;5.00;2.03;;;11.60;99.90;;;;;;5077939;28;20088;-68
2022/06/20 03:50:22;;;;;;;2.78;1.98;;;11.50;99.90;;;;;;5062082;28;20072;-67
2022/06/20 03:52:51;;;;;;;6.57;2.05;;;11.30;99.90;;;;;;5077117;28;20032;-68
2022/06/20 03:55:33;;;;;;;4.75;2.22;;;11.50;99.90;;;;;;5062781;28;20059;-68
2022/06/20 03:58:15;;;;;;;6.63;1.95;;;11.50;99.90;;;;;;5076693;28;20049;-68
2022/06/20 04:00:53;;;;;;;3.28;2.05;;;11.50;99.90;;;;;;5060510;28;20402;-68
2022/06/20 04:03:28;;;;;;;3.80;1.88;;;11.40;99.90;;;;;;5076730;28;20029;-68
2022/06/20 04:05:54;;;;;;;;;;;11.50;99.90;;;;;;5077288;28;20068;-68
2022/06/20 04:10:57;;;;;;;2.60;1.58;;;11.50;99.90;;;;;;5057211;28;19921;-68
2022/06/20 04:11:20;;;;;;;5.53;2.88;;;11.40;99.90;;;;;;5076227;28;20460;-68
2022/06/20 04:14:11;;;;;;;4.82;1.90;;;11.50;99.90;;;;;;5076589;28;20036;-67
2022/06/20 04:16:43;;;;;;;7.97;2.30;;;11.50;99.90;;;;;;5075783;28;20048;-68
2022/06/20 04:19:28;;;;;;;5.18;2.08;;;11.60;99.90;;;;;;5083734;28;20503;-67
2022/06/20 04:21:56;;;;;;;5.88;2.28;;;11.60;99.90;;;;;;5046338;28;20047;-66
2022/06/20 04:24:41;;;;;;;9.18;2.70;;;11.60;99.90;;;;;;5059931;28;20471;-66
2022/06/20 04:27:18;;;;;;;9.75;2.80;;;11.70;99.90;;;;;;5059671;28;20040;-66
2022/06/20 04:29:53;;;;;;;8.35;2.38;;;11.70;99.90;;;;;;5058895;28;20495;-66
2022/06/20 04:32:50;;;;;;;7.72;2.35;;;11.80;99.90;;;;;;5076653;28;20143;-66
2022/06/20 04:35:24;;;;;;;5.25;2.53;;;11.80;99.90;;;;;;5058835;28;20041;-66
2022/06/20 04:37:52;;;;;;;5.97;2.72;;;12.00;99.90;;;;;;5066074;28;20044;-66
2022/06/20 04:40:40;;;;;;;7.00;2.17;;;11.90;99.90;;;;;;5067470;28;20052;-65
2022/06/20 04:43:18;;;;;;;6.25;2.38;;;12.20;99.90;;;;;;5065528;28;20135;-66
2022/06/20 04:46:19;;;;;;;10.65;2.75;;;12.10;99.90;;;;;;5067949;28;20033;-66
2022/06/20 04:48:47;;;;;;;9.18;2.65;;;12.30;99.90;;;;;;5057129;28;20831;-65
2022/06/20 04:51:18;;;;;;;6.55;2.38;;;12.20;99.90;;;;;;5068286;28;20051;-66
2022/06/20 04:53:46;;;;;;;6.32;2.53;;;12.40;99.90;;;;;;5068021;28;20083;-66
2022/06/20 04:56:14;;;;;;;4.78;2.33;;;12.50;99.90;;;;;;5067011;28;20052;-66
2022/06/20 04:58:48;;;;;;;8.43;2.55;;;12.70;99.90;;;;;;5054185;28;20484;-66
2022/06/20 05:01:14;;;;;;;10.45;2.70;;;13.30;99.90;;;;;;5066660;28;20071;-66
2022/06/20 05:03:46;;;;;;;10.02;3.25;;;13.60;99.90;;;;;;5073974;28;20040;-66
2022/06/20 05:06:28;;;;;;;9.63;2.97;;;13.70;99.90;;;;;;5084454;28;20043;-66
2022/06/20 05:09:01;;;;;;;8.02;2.63;;;14.30;99.90;;;;;;5085467;28;20073;-66
2022/06/20 05:11:40;;;;;;;5.22;2.17;;;14.90;99.90;;;;;;5087712;28;20043;-65
2022/06/20 05:14:29;;;;;;;5.40;2.20;;;15.30;99.90;;;;;;5058062;28;20041;-67
2022/06/20 05:16:55;;;;;;;10.90;2.80;;;15.40;99.90;;;;;;5050269;28;20040;-67
2022/06/20 05:19:26;;;;;;;8.10;2.45;;;15.70;99.90;;;;;;5049159;28;20080;-68
2022/06/20 05:21:56;;;;;;;9.32;2.20;;;15.80;99.90;;;;;;5053055;28;20033;-67
2022/06/20 05:24:27;;;;;;;7.40;2.42;;;15.80;99.90;;;;;;5047438;28;20826;-66
2022/06/20 05:26:54;;;;;;;8.73;2.80;;;15.50;99.90;;;;;;5049901;28;20045;-66
2022/06/20 05:29:33;;;;;;;7.50;2.72;;;15.70;99.90;;;;;;5050090;28;20487;-66
2022/06/20 05:32:02;;;;;;;10.13;3.20;;;15.90;99.90;;;;;;5075861;28;20052;-66
2022/06/20 05:34:50;;;;;;;8.55;2.50;;;16.80;99.90;;;;;;5076156;28;20051;-66
2022/06/20 05:37:34;;;;;;;10.63;3.17;;;17.30;99.90;;;;;;5067242;28;20044;-66
2022/06/20 05:39:59;;;;;;;7.70;2.72;;;17.80;99.90;;;;;;5076579;28;20123;-67
2022/06/20 05:42:25;;;;;;;8.40;2.30;;;17.70;99.90;;;;;;5081340;28;20148;-66
2022/06/20 05:44:51;;;;;;;9.20;2.50;;;17.50;99.90;;;;;;5079904;28;20081;-66
2022/06/20 05:47:32;;;;;;;7.65;2.58;;;17.20;99.90;;;;;;5062796;28;20048;-68
2022/06/20 05:50:13;;;;;;;7.95;2.47;;;17.60;99.90;;;;;;5062126;28;20040;-68
2022/06/20 05:52:43;;;;;;;9.77;2.53;;;17.70;99.90;;;;;;5076886;28;20032;-69
2022/06/20 05:55:21;;;;;;;6.78;2.35;;;17.40;99.90;;;;;;5073456;28;20115;-68
2022/06/20 05:57:48;;;;;;;10.50;2.17;;;17.30;99.90;;;;;;5069506;28;20043;-68
2022/06/20 06:00:20;;;;;;;12.82;2.40;;;17.70;99.90;;;;;;5064419;28;20045;-69
2022/06/20 06:02:55;;;;;;;8.35;1.88;;;17.80;99.90;;;;;;5070912;28;20043;-69
2022/06/20 06:05:45;;;;;;;9.45;2.03;;;17.70;99.90;;;;;;5065928;28;20041;-69
2022/06/20 06:08:39;;;;;;;10.68;2.38;;;18.10;99.90;;;;;;5070510;28;20027;-67
2022/06/20 06:11:11;;;;;;;8.20;2.78;;;18.70;99.90;;;;;;5049428;28;20102;-68
2022/06/20 06:14:02;;;;;;;5.45;1.73;;;18.50;99.90;;;;;;5043787;28;20045;-67
2022/06/20 06:16:49;;;;;;;8.88;2.35;;;18.70;99.90;;;;;;5048985;28;20078;-67
2022/06/20 06:19:33;;;;;;;8.50;2.05;;;18.70;99.90;;;;;;5047063;28;20044;-69
2022/06/20 06:22:23;;;;;;;12.02;2.28;;;18.40;99.90;;;;;;5045343;28;20075;-67
2022/06/20 06:24:56;;;;;;;10.20;2.65;;;18.20;99.90;;;;;;5048116;28;20044;-67
2022/06/20 06:27:31;;;;;;;9.30;1.90;;;18.40;99.90;;;;;;5047160;28;20043;-71
2022/06/20 06:30:07;;;;;;;10.07;2.03;;;18.50;99.90;;;;;;5044953;28;20032;-72
2022/06/20 06:32:55;;;;;;;7.53;2.20;;;18.50;99.90;;;;;;5048075;28;20055;-70
2022/06/20 06:35:27;;;;;;;6.70;1.77;;;18.80;99.90;;;;;;5046336;28;20506;-69
2022/06/20 06:38:00;;;;;;;8.02;2.03;;;18.80;99.90;;;;;;5048569;28;20055;-73
2022/06/20 06:40:32;;;;;;;8.40;2.20;;;18.70;99.90;;;;;;5047438;28;20044;-68
2022/06/20 06:42:59;;;;;;;9.15;2.50;;;18.70;99.90;;;;;;5049453;28;20124;-68
2022/06/20 06:45:27;;;;;;;6.00;1.92;;;18.50;99.90;;;;;;5047519;28;20510;-67
2022/06/20 06:48:12;;;;;;;5.35;1.60;;;18.30;99.90;;;;;;5048512;28;20044;-68
2022/06/20 06:50:45;;;;;;;8.70;2.10;;;18.30;99.90;;;;;;5052876;28;20044;-67
2022/06/20 06:53:29;;;;;;;11.02;2.30;;;18.30;99.90;;;;;;5052919;28;20049;-71
2022/06/20 06:56:00;;;;;;;6.85;1.90;;;18.20;99.90;;;;;;5055705;28;20502;-68
2022/06/20 06:58:49;;;;;;;8.07;1.98;;;18.00;99.90;;;;;;5054965;28;20052;-67
2022/06/20 07:01:20;;;;;;;9.38;2.78;;;18.10;99.90;;;;;;5051504;28;20095;-66
2022/06/20 07:03:48;;;;;;;9.73;2.30;;;17.80;99.90;;;;;;5053428;28;20680;-68
2022/06/20 07:06:20;;;;;;;7.10;2.17;;;17.80;99.90;;;;;;5048017;28;20041;-67
2022/06/20 07:08:56;;;;;;;8.27;2.30;;;17.70;99.90;;;;;;5050712;28;20079;-65
2022/06/20 07:11:24;;;;;;;9.73;2.20;;;17.60;99.90;;;;;;5051251;28;20147;-68
2022/06/20 07:14:16;;;;;;;12.23;2.80;;;17.30;99.90;;;;;;5051388;28;20312;-67
2022/06/20 07:16:47;;;;;;;9.88;2.20;;;17.50;99.90;;;;;;5052776;28;20094;-68
2022/06/20 07:19:13;;;;;;;13.30;2.60;;;17.50;99.90;;;;;;5054192;28;20052;-66
2022/06/20 07:21:40;;;;;;;15.55;3.20;;;17.40;99.90;;;;;;5056104;28;20429;-72
2022/06/20 07:24:20;;;;;;;8.15;1.77;;;17.60;99.90;;;;;;5073800;28;20525;-67
2022/06/20 07:26:51;;;;;;;11.45;1.98;;;17.40;99.90;;;;;;5055705;28;20036;-67
2022/06/20 07:29:22;;;;;;;9.05;2.20;;;17.50;99.90;;;;;;5053959;28;20044;-67
2022/06/20 07:32:09;;;;;;;11.85;2.58;;;17.40;99.90;;;;;;5048416;28;20047;-67
2022/06/20 07:34:54;;;;;;;8.45;1.98;;;17.40;99.90;;;;;;5045287;28;20080;-67
2022/06/20 07:37:24;;;;;;;;;;;17.60;99.90;;;;;;5049350;28;20915;-67
2022/06/20 07:39:56;;;;;;;7.75;2.22;;;17.60;99.90;;;;;;5044467;28;20011;-67
2022/06/20 07:42:27;;;;;;;11.98;2.53;;;17.60;99.90;;;;;;5053575;28;20052;-67
2022/06/20 07:45:13;;;;;;;13.32;2.42;;;17.70;99.90;;;;;;5053549;28;20037;-67
2022/06/20 07:47:46;;;;;;;7.50;2.53;;;17.90;99.90;;;;;;5054785;28;20044;-66
2022/06/20 07:50:19;;;;;;;9.48;3.03;;;17.60;99.90;;;;;;5054618;28;20121;-67
2022/06/20 07:53:14;;;;;;;9.88;2.78;;;17.40;99.90;;;;;;5057573;28;20543;-67
2022/06/20 07:55:45;;;;;;;8.98;2.40;;;17.50;99.90;;;;;;5055348;28;20048;-66
2022/06/20 07:58:15;;;;;;;5.22;1.90;;;17.60;99.90;;;;;;5052647;28;20065;-71
2022/06/20 08:00:49;;;;;;;13.93;2.50;;;17.80;99.90;;;;;;5055635;28;20425;-68
2022/06/20 08:03:42;;;;;;;7.65;1.95;;;17.70;99.90;;;;;;5056340;28;20055;-68
2022/06/20 08:06:15;;;;;;;5.63;1.67;;;17.70;99.90;;;;;;5053807;28;20430;-67
2022/06/20 08:08:46;;;;;;;7.43;2.08;;;17.70;99.90;;;;;;5051724;28;20040;-67
2022/06/20 08:11:53;;;;;;;7.97;2.75;;;17.60;99.90;;;;;;5054648;28;20056;-67
2022/06/20 08:14:29;;;;;;;7.75;1.63;;;17.60;99.90;;;;;;5055301;28;20055;-68
2022/06/20 08:17:00;;;;;;;9.63;2.90;;;17.70;99.90;;;;;;5053032;28;20054;-68
2022/06/20 08:19:29;;;;;;;6.78;1.83;;;17.60;99.90;;;;;;5053199;28;20052;-69
2022/06/20 08:22:20;;;;;;;7.88;1.27;;;17.40;99.90;;;;;;5054808;28;20045;-69
2022/06/20 08:25:09;;;;;;;4.65;1.48;;;17.40;99.90;;;;;;5053727;28;20136;-68
2022/06/20 08:28:05;;;;;;;4.57;1.33;;;17.30;99.90;;;;;;5055203;28;20044;-69
2022/06/20 08:30:52;;;;;;;9.07;2.58;;;17.50;99.90;;;;;;5052181;28;20048;-68
2022/06/20 08:33:26;;;;;;;5.15;1.20;;;17.40;99.90;;;;;;5050570;28;20515;-68
2022/06/20 08:36:03;;;;;;;3.15;1.13;;;17.60;99.90;;;;;;5052048;28;20052;-69
2022/06/20 08:38:46;;;;;;;4.80;1.33;;;17.70;99.90;;;;;;5052555;28;20056;-66
2022/06/20 08:41:22;;;;;;;6.78;1.95;;;19.50;99.90;;;;;;5052916;28;20118;-68
2022/06/20 08:44:25;;;;;;;6.95;1.42;;;17.50;99.90;;;;;;5053963;28;20156;-67
2022/06/20 08:47:09;;;;;;;5.25;1.55;;;17.30;99.90;;;;;;5052918;28;20058;-67
2022/06/20 08:49:46;;;;;;;5.75;1.58;;;17.50;99.90;;;;;;5051330;28;20114;-70
2022/06/20 08:52:30;;;;;;;5.70;1.25;;;17.70;99.90;;;;;;5051522;28;20059;-71
2022/06/20 08:55:10;;;;;;;10.30;1.77;;;17.40;99.90;;;;;;5052355;28;20040;-68
2022/06/20 08:58:16;;;;;;;4.63;1.23;;;17.50;99.90;;;;;;5054632;28;20068;-68
2022/06/20 09:00:59;;;;;;;6.28;1.55;;;17.60;99.90;;;;;;5050202;28;20080;-69
2022/06/20 09:04:04;;;;;;;7.32;1.15;;;17.40;99.90;;;;;;5044443;28;20051;-68
2022/06/20 09:06:57;;;;;;;3.80;1.52;;;17.30;99.90;;;;;;5050829;28;20048;-69
2022/06/20 09:09:52;;;;;;;11.38;1.80;;;17.80;99.90;;;;;;5049861;28;20048;-66
2022/06/20 09:12:26;;;;;;;3.17;1.77;;;17.70;99.90;;;;;;5050750;28;20056;-69
2022/06/20 09:15:15;;;;;;;6.05;1.27;;;17.80;99.90;;;;;;5046464;28;20132;-68
2022/06/20 09:17:50;;;;;;;4.70;1.40;;;19.50;99.90;;;;;;5049081;28;20154;-72
2022/06/20 09:20:35;;;;;;;7.38;1.70;;;17.70;99.90;;;;;;5049629;28;20056;-70
2022/06/20 09:23:13;;;;;;;7.13;1.90;;;17.50;99.90;;;;;;5050646;28;20080;-70
2022/06/20 09:26:07;;;;;;;6.07;1.42;;;18.00;99.90;;;;;;5049911;28;20402;-68
2022/06/20 09:29:00;;;;;;;6.07;1.52;;;18.00;99.90;;;;;;5052315;28;20052;-68
2022/06/20 09:31:53;;;;;;;4.90;1.60;;;18.00;99.90;;;;;;5052745;28;20056;-68
2022/06/20 09:34:49;;;;;;;6.20;1.13;;;18.00;99.90;;;;;;5051102;28;20157;-69
2022/06/20 09:37:30;;;;;;;6.47;1.40;;;18.10;99.90;;;;;;5051598;28;20084;-68
2022/06/20 09:40:26;;;;;;;5.95;1.63;;;18.10;99.90;;;;;;5049823;28;20132;-68
2022/06/20 09:42:56;;;;;;;6.90;2.45;;;18.50;99.90;;;;;;5053834;28;20072;-68
2022/06/20 09:45:46;;;;;;;10.07;2.00;;;17.90;99.90;;;;;;5049063;28;20197;-68
2022/06/20 09:48:16;;;;;;;4.05;1.15;;;17.90;99.90;;;;;;5052539;28;20060;-72
2022/06/20 09:50:53;;;;;;;4.82;1.38;;;17.90;99.90;;;;;;5049159;28;20052;-68
2022/06/20 09:53:25;;;;;;;7.68;2.00;;;17.90;99.90;;;;;;5052602;28;20090;-70
2022/06/20 09:56:03;;;;;;;3.47;1.20;;;17.80;99.90;;;;;;5050506;28;20627;-70
2022/06/20 09:58:53;;;;;;;5.55;1.88;;;18.00;99.90;;;;;;5050970;28;20738;-70
2022/06/20 10:01:37;;;;;;;4.75;1.17;;;18.10;99.90;;;;;;5053186;28;20052;-70
2022/06/20 10:04:27;;;;;;;6.40;1.58;;;18.30;99.90;;;;;;5052773;28;20091;-70
2022/06/20 10:07:31;;;;;;;6.53;1.83;;;18.50;99.90;;;;;;5052667;28;20081;-69
2022/06/20 10:10:18;;;;;;;7.32;2.05;;;18.50;99.90;;;;;;5053074;28;20074;-70
2022/06/20 10:13:07;;;;;;;5.10;1.50;;;18.30;99.90;;;;;;5052474;28;20060;-69
2022/06/20 10:16:02;;;;;;;6.90;1.50;;;18.50;99.90;;;;;;5039692;28;20079;-74
2022/06/20 10:18:42;;;;;;;6.47;1.80;;;18.50;99.90;;;;;;5051155;28;20053;-69
2022/06/20 10:21:30;;;;;;;8.98;2.05;;;18.70;99.90;;;;;;5051003;28;20040;-75
2022/06/20 10:24:13;;;;;;;5.97;1.20;;;18.30;99.90;;;;;;5050778;28;20044;-69
2022/06/20 10:27:00;;;;;;;7.05;1.23;;;18.80;99.90;;;;;;5051414;28;20491;-69
2022/06/20 10:29:32;;;;;;;4.97;1.00;;;18.80;99.90;;;;;;5044179;28;20097;-68
2022/06/20 10:32:20;;;;;;;4.28;1.48;;;18.90;99.90;;;;;;5049350;28;20487;-67
2022/06/20 10:35:15;;;;;;;5.68;1.33;;;19.10;99.90;;;;;;5053071;28;20041;-67
2022/06/20 10:38:00;;;;;;;3.10;0.95;;;19.40;99.90;;;;;;5019576;28;20048;-63
2022/06/20 10:40:50;;;;;;;5.40;1.27;;;18.80;99.90;;;;;;5052539;28;20044;-67
2022/06/20 10:43:34;;;;;;;4.88;2.28;;;19.10;99.90;;;;;;5052632;28;20449;-66
2022/06/20 10:46:08;;;;;;;8.05;1.40;;;18.80;99.90;;;;;;5053878;28;20110;-66
2022/06/20 10:49:04;;;;;;;9.37;2.70;;;18.80;99.90;;;;;;5052972;28;20505;-64
2022/06/20 10:51:39;;;;;;;8.23;2.53;;;18.70;99.90;;;;;;5050305;28;20070;-65
2022/06/20 10:54:49;;;;;;;8.32;1.75;;;18.50;99.90;;;;;;5054032;28;20058;-66
2022/06/20 10:57:23;;;;;;;8.10;1.70;;;18.60;99.90;;;;;;5008196;28;20064;-68
2022/06/20 11:00:01;;;;;;;7.65;1.55;;;18.40;99.90;;;;;;5052028;28;20103;-66
2022/06/20 11:03:06;;;;;;;7.45;1.90;;;18.40;99.90;;;;;;5053600;28;20482;-67
2022/06/20 11:05:44;;;;;;;5.10;1.80;;;18.60;99.90;;;;;;5052020;28;20390;-66
2022/06/20 11:08:36;;;;;;;5.65;1.58;;;18.40;99.90;;;;;;5054951;28;20158;-67
2022/06/20 11:11:23;;;;;;;7.50;1.60;;;18.50;99.90;;;;;;5052014;28;20048;-66
2022/06/20 11:13:51;;;;;;;10.65;2.00;;;18.80;99.90;;;;;;5052512;28;20059;-67
2022/06/20 11:16:34;;;;;;;4.72;1.63;;;18.40;99.90;;;;;;5053250;28;20151;-67
2022/06/20 11:19:12;;;;;;;6.38;1.92;;;18.60;99.90;;;;;;5053652;28;20083;-68
2022/06/20 11:21:48;;;;;;;7.93;1.88;;;18.30;99.90;;;;;;5052512;28;20448;-67
2022/06/20 11:24:28;;;;;;;8.82;1.75;;;18.60;99.90;;;;;;5054272;28;20040;-66
2022/06/20 11:27:09;;;;;;;4.95;1.65;;;18.60;99.90;;;;;;5053449;28;20040;-68
2022/06/20 11:29:57;;;;;;;4.75;1.40;;;18.80;99.90;;;;;;5053490;28;20052;-66
2022/06/20 11:32:41;;;;;;;3.28;1.40;;;18.80;99.90;;;;;;5053733;28;20573;-67
2022/06/20 11:35:31;;;;;;;7.10;2.37;;;18.80;99.90;;;;;;5052010;28;20101;-67
2022/06/20 11:38:19;;;;;;;4.55;1.15;;;18.60;99.90;;;;;;5051326;28;20085;-67
2022/06/20 11:41:06;;;;;;;7.28;1.55;;;18.70;99.90;;;;;;5051689;28;20547;-67
2022/06/20 11:44:06;;;;;;;7.18;1.60;;;18.50;99.90;;;;;;5053568;28;20041;-68
2022/06/20 11:47:09;;;;;;;10.93;1.67;;;18.50;99.90;;;;;;5045003;28;20125;-66
2022/06/20 11:49:49;;;;;;;4.78;1.90;;;18.50;99.90;;;;;;5050880;28;20542;-66
2022/06/20 11:52:21;;;;;;;4.53;1.38;;;18.60;99.90;;;;;;5052253;28;20506;-67
2022/06/20 11:55:18;;;;;;;9.35;1.85;;;18.60;99.90;;;;;;5052409;28;20083;-67
2022/06/20 11:58:03;;;;;;;9.52;1.80;;;18.40;99.90;;;;;;5052593;28;20118;-68
2022/06/20 12:00:34;;;;;;;3.33;1.65;;;18.70;99.90;;;;;;5051478;28;20105;-67
2022/06/20 12:03:24;;;;;;;3.58;1.17;;;18.80;99.90;;;;;;5052829;28;20059;-68
2022/06/20 12:06:16;;;;;;;4.47;0.80;;;18.70;99.90;;;;;;5051394;28;20051;-67
2022/06/20 12:08:53;;;;;;;6.10;1.58;;;19.00;99.90;;;;;;5052023;28;20125;-67
2022/06/20 12:11:31;;;;;;;6.45;1.60;;;19.00;99.90;;;;;;5054918;28;20049;-66
2022/06/20 12:14:16;;;;;;;5.10;1.50;;;19.10;99.90;;;;;;5054053;28;20453;-68
2022/06/20 12:17:02;;;;;;;5.88;1.38;;;18.80;99.90;;;;;;5054672;28;20572;-68
2022/06/20 12:25:37;;;;;;;4.50;1.80;;;18.60;99.90;;;;;;5056478;28;20040;-66
2022/06/20 12:28:23;;;;;;;8.00;1.35;;;18.60;99.90;;;;;;5052678;28;20075;-67
2022/06/20 12:30:57;;;;;;;5.13;1.38;;;18.70;99.90;;;;;;5054440;28;20514;-66
2022/06/20 12:33:23;;;;;;;8.20;1.65;;;18.90;99.90;;;;;;5055414;28;20044;-67
2022/06/20 12:35:54;;;;;;;3.72;1.13;;;19.00;99.90;;;;;;5052965;28;20131;-67
2022/06/20 12:38:43;;;;;;;6.15;1.10;;;19.00;99.90;;;;;;5053237;28;20282;-67
2022/06/20 12:41:15;;;;;;;5.00;1.38;;;19.10;99.90;;;;;;5052574;28;20045;-68
2022/06/20 12:43:54;;;;;;;9.82;1.60;;;18.70;99.90;;;;;;5055683;28;20044;-66
2022/06/20 12:47:00;;;;;;;4.93;1.88;;;18.80;99.90;;;;;;5054916;28;20033;-68
2022/06/20 12:49:53;;;;;;;4.13;0.93;;;18.70;99.90;;;;;;5053251;28;20084;-67
2022/06/20 12:52:52;;;;;;;5.22;1.88;;;18.70;99.90;;;;;;5040882;28;20665;-63
2022/06/20 12:55:40;;;;;;;4.80;1.35;;;18.90;99.90;;;;;;5045903;28;20063;-65
2022/06/20 12:58:35;;;;;;;4.70;1.52;;;18.70;99.90;;;;;;5047865;28;20053;-66
2022/06/20 13:01:31;;;;;;;3.47;1.75;;;19.10;99.90;;;;;;5044960;28;20080;-65
2022/06/20 13:04:00;;;;;;;6.93;1.55;;;19.30;99.90;;;;;;5046606;28;20048;-65
2022/06/20 13:06:36;;;;;;;3.88;1.25;;;19.00;99.90;;;;;;5045860;28;20102;-68
2022/06/20 13:09:40;;;;;;;6.13;1.15;;;18.90;99.90;;;;;;5046439;28;20312;-65
2022/06/20 13:12:29;;;;;;;5.47;1.30;;;18.90;99.90;;;;;;5003444;28;20041;-67
2022/06/20 13:15:24;;;;;;;5.07;1.35;;;18.60;99.90;;;;;;5041951;28;20056;-65
2022/06/20 13:18:07;;;;;;;3.50;1.10;;;18.60;99.90;;;;;;5040411;28;20869;-65
2022/06/20 13:20:54;;;;;;;3.53;1.38;;;16.50;99.90;;;;;;5040118;28;20041;-67
2022/06/20 13:23:41;;;;;;;3.75;1.25;;;18.80;99.90;;;;;;5041048;28;20048;-67
2022/06/20 13:26:23;;;;;;;18.17;2.55;;;18.90;99.90;;;;;;5042731;28;21414;-66
2022/06/20 13:29:09;;;;;;;4.63;1.52;;;18.70;99.90;;;;;;5042534;28;20102;-65
2022/06/20 13:31:44;;;;;;;6.28;2.33;;;18.70;99.90;;;;;;5041138;28;20044;-67
2022/06/20 13:34:41;;;;;;;3.03;1.00;;;19.00;99.90;;;;;;5043562;28;20143;-68
2022/06/20 13:37:42;;;;;;;3.33;1.33;;;18.80;99.90;;;;;;5043692;28;20265;-69
2022/06/20 13:40:18;;;;;;;5.43;1.58;;;20.50;99.90;;;;;;5042275;28;20169;-68
2022/06/20 13:43:10;;;;;;;4.30;1.20;;;19.00;99.90;;;;;;5042099;28;20056;-68
2022/06/20 13:46:10;;;;;;;4.70;1.42;;;19.00;99.90;;;;;;5040478;28;20102;-70
2022/06/20 13:48:43;;;;;;;8.25;1.60;;;18.90;99.90;;;;;;5042341;28;20062;-67
2022/06/20 13:51:23;;;;;;;7.05;1.75;;;18.70;99.90;;;;;;5038998;28;20910;-68
2022/06/20 13:54:10;;;;;;;5.60;1.50;;;18.80;99.90;;;;;;5044506;28;20887;-69